createdAt,value
2018-11-12T00:02:09.003Z,54.10
2018-11-12T00:04:36.418Z,54.20
2018-11-12T00:07:03.833Z,54.20
2018-11-12T00:09:31.269Z,54.20
2018-11-12T00:11:58.692Z,54.20
2018-11-12T00:14:26.134Z,54.10
2018-11-12T00:16:53.545Z,54.10
2018-11-12T00:19:20.978Z,54.00
2018-11-12T00:21:48.443Z,54.00
2018-11-12T00:24:15.833Z,54.00
2018-11-12T00:26:43.237Z,53.90
2018-11-12T00:29:10.649Z,53.90
2018-11-12T00:31:38.069Z,53.80
2018-11-12T00:34:05.532Z,53.90
2018-11-12T00:36:32.955Z,53.80
2018-11-12T00:39:00.370Z,53.80
2018-11-12T00:41:27.770Z,53.70
2018-11-12T00:43:55.196Z,53.80
2018-11-12T00:46:22.617Z,53.70
2018-11-12T00:48:50.042Z,53.70
2018-11-12T00:51:17.461Z,53.70
2018-11-12T00:53:44.867Z,53.70
2018-11-12T00:56:12.298Z,53.70
2018-11-12T00:58:39.712Z,53.70
2018-11-12T01:01:08.679Z,53.60
2018-11-12T01:03:36.128Z,53.50
2018-11-12T01:06:03.550Z,53.50
2018-11-12T01:08:31.915Z,53.40
2018-11-12T01:10:59.324Z,53.40
2018-11-12T01:13:26.768Z,53.40
2018-11-12T01:15:54.202Z,53.30
2018-11-12T01:18:21.635Z,53.30
2018-11-12T01:20:49.061Z,53.30
2018-11-12T01:23:16.482Z,53.30
2018-11-12T01:25:43.922Z,53.30
2018-11-12T01:28:11.386Z,53.30
2018-11-12T01:30:38.814Z,53.30
2018-11-12T01:33:06.238Z,53.30
2018-11-12T01:35:33.674Z,53.20
2018-11-12T01:38:01.109Z,53.30
2018-11-12T01:40:28.551Z,53.40
2018-11-12T01:42:55.990Z,53.40
2018-11-12T01:45:23.433Z,53.30
2018-11-12T01:47:51.168Z,53.30
2018-11-12T01:50:19.248Z,53.30
2018-11-12T01:52:47.509Z,53.10
2018-11-12T01:55:16.093Z,53.10
2018-11-12T01:57:43.861Z,53.00
2018-11-12T02:00:13.992Z,53.00
2018-11-12T02:02:41.958Z,53.60
2018-11-12T02:05:10.036Z,53.00
2018-11-12T02:07:37.466Z,53.00
2018-11-12T02:10:05.430Z,53.00
2018-11-12T02:12:32.866Z,53.00
2018-11-12T02:15:00.302Z,53.00
2018-11-12T02:17:27.749Z,53.00
2018-11-12T02:19:55.185Z,53.00
2018-11-12T02:22:22.627Z,52.90
2018-11-12T02:24:50.200Z,52.90
2018-11-12T02:27:18.076Z,52.90
2018-11-12T02:29:45.511Z,52.90
2018-11-12T02:32:12.926Z,52.90
2018-11-12T02:34:40.365Z,52.80
2018-11-12T02:37:07.791Z,52.80
2018-11-12T02:39:35.212Z,52.80
2018-11-12T02:42:02.642Z,52.70
2018-11-12T02:44:30.070Z,52.70
2018-11-12T02:46:57.494Z,52.70
2018-11-12T02:49:24.918Z,52.70
2018-11-12T02:51:52.326Z,52.80
2018-11-12T02:54:19.750Z,52.60
2018-11-12T02:56:47.187Z,52.70
2018-11-12T02:59:14.602Z,52.70
2018-11-12T03:01:42.025Z,52.70
2018-11-12T03:04:09.446Z,52.70
2018-11-12T03:06:36.878Z,52.70
2018-11-12T03:09:07.686Z,52.80
2018-11-12T03:11:35.109Z,52.80
2018-11-12T03:14:02.559Z,52.90
2018-11-12T03:16:29.982Z,52.90
2018-11-12T03:18:57.393Z,52.80
2018-11-12T03:21:24.817Z,52.80
2018-11-12T03:23:52.238Z,52.80
2018-11-12T03:26:19.678Z,52.70
2018-11-12T03:28:47.114Z,52.70
2018-11-12T03:31:14.538Z,52.90
2018-11-12T03:33:41.953Z,52.70
2018-11-12T03:36:09.388Z,52.60
2018-11-12T03:38:36.813Z,53.20
2018-11-12T03:41:04.231Z,52.50
2018-11-12T03:43:31.662Z,52.50
2018-11-12T03:45:59.089Z,52.50
2018-11-12T03:48:26.574Z,52.40
2018-11-12T03:50:53.994Z,52.40
2018-11-12T03:53:21.526Z,52.40
2018-11-12T03:55:48.954Z,52.40
2018-11-12T03:58:16.382Z,52.40
2018-11-12T04:00:43.806Z,52.30
2018-11-12T04:03:11.243Z,52.30
2018-11-12T04:05:38.663Z,52.20
2018-11-12T04:08:06.106Z,52.30
2018-11-12T04:10:33.534Z,52.90
2018-11-12T04:13:00.953Z,52.20
2018-11-12T04:15:28.377Z,52.20
2018-11-12T04:17:55.832Z,52.30
2018-11-12T04:20:24.104Z,52.40
2018-11-12T04:23:00.787Z,52.30
2018-11-12T04:25:28.218Z,52.30
2018-11-12T04:27:55.657Z,52.40
2018-11-12T04:30:23.082Z,52.40
2018-11-12T04:32:50.511Z,52.50
2018-11-12T04:35:17.939Z,52.60
2018-11-12T04:37:45.365Z,52.70
2018-11-12T04:40:14.502Z,52.90
2018-11-12T04:42:41.946Z,52.90
2018-11-12T04:45:10.760Z,52.90
2018-11-12T04:47:38.183Z,52.90
2018-11-12T04:50:06.980Z,52.90
2018-11-12T04:52:34.397Z,53.00
2018-11-12T04:55:01.977Z,53.00
2018-11-12T04:57:29.281Z,53.00
2018-11-12T04:59:56.692Z,53.00
2018-11-12T05:02:24.145Z,53.00
2018-11-12T05:04:51.582Z,53.00
2018-11-12T05:07:19.053Z,53.10
2018-11-12T05:09:46.434Z,53.00
2018-11-12T05:12:13.891Z,53.10
2018-11-12T05:14:41.314Z,53.20
2018-11-12T05:17:08.721Z,53.10
2018-11-12T05:19:36.130Z,53.20
2018-11-12T05:22:03.543Z,53.40
2018-11-12T05:24:30.994Z,53.20
2018-11-12T05:26:58.414Z,53.10
2018-11-12T05:29:25.830Z,53.00
2018-11-12T05:31:53.238Z,53.00
2018-11-12T05:34:20.703Z,52.90
2018-11-12T05:36:48.102Z,52.90
2018-11-12T05:39:15.526Z,53.00
2018-11-12T05:41:42.933Z,52.90
2018-11-12T05:44:10.346Z,53.20
2018-11-12T05:46:37.830Z,53.00
2018-11-12T05:49:05.370Z,52.90
2018-11-12T05:51:32.815Z,53.00
2018-11-12T05:54:00.274Z,52.90
2018-11-12T05:56:27.714Z,53.00
2018-11-12T05:58:55.144Z,53.00
2018-11-12T06:01:22.548Z,53.20
2018-11-12T06:03:49.956Z,52.90
2018-11-12T06:06:17.381Z,52.90
2018-11-12T06:08:44.786Z,50.50
2018-11-12T06:11:13.018Z,50.60
2018-11-12T06:13:40.452Z,52.50
2018-11-12T06:16:07.891Z,52.50
2018-11-12T06:18:35.305Z,52.40
2018-11-12T06:21:02.740Z,52.20
2018-11-12T06:23:30.227Z,52.20
2018-11-12T06:25:57.655Z,52.30
2018-11-12T06:28:25.078Z,52.20
2018-11-12T06:30:52.510Z,52.20
2018-11-12T06:33:19.929Z,52.20
2018-11-12T06:35:47.388Z,52.20
2018-11-12T06:38:14.814Z,52.10
2018-11-12T06:40:42.241Z,52.10
2018-11-12T06:43:09.790Z,52.00
2018-11-12T06:45:37.105Z,52.10
2018-11-12T06:48:04.643Z,52.10
2018-11-12T06:50:33.030Z,52.20
2018-11-12T06:53:00.896Z,52.10
2018-11-12T06:55:28.236Z,52.00
2018-11-12T06:57:55.941Z,52.00
2018-11-12T07:00:31.225Z,52.10
2018-11-12T07:02:58.669Z,51.90
2018-11-12T07:05:26.310Z,52.00
2018-11-12T07:07:53.782Z,52.00
2018-11-12T07:10:23.240Z,52.00
2018-11-12T07:12:51.484Z,52.00
2018-11-12T07:15:20.028Z,51.90
2018-11-12T07:17:47.447Z,51.90
2018-11-12T07:20:15.733Z,51.80
2018-11-12T07:22:43.324Z,51.70
2018-11-12T07:25:11.741Z,51.70
2018-11-12T07:27:39.237Z,51.80
2018-11-12T07:30:07.997Z,51.80
2018-11-12T07:32:35.402Z,51.70
2018-11-12T07:35:02.819Z,51.70
2018-11-12T07:37:30.220Z,51.70
2018-11-12T07:39:57.621Z,51.80
2018-11-12T07:42:25.033Z,51.80
2018-11-12T07:44:52.445Z,51.90
2018-11-12T07:47:19.853Z,52.00
2018-11-12T07:49:47.262Z,52.10
2018-11-12T07:52:14.670Z,52.00
2018-11-12T07:54:42.149Z,51.90
2018-11-12T07:57:09.561Z,51.90
2018-11-12T07:59:36.964Z,52.00
2018-11-12T08:02:04.384Z,51.80
2018-11-12T08:04:31.926Z,51.80
2018-11-12T08:06:59.334Z,51.80
2018-11-12T08:09:26.794Z,51.80
2018-11-12T08:11:54.216Z,51.80
2018-11-12T08:14:21.609Z,51.70
2018-11-12T08:16:48.970Z,51.70
2018-11-12T08:19:16.387Z,51.50
2018-11-12T08:21:43.880Z,51.40
2018-11-12T08:24:11.278Z,51.40
2018-11-12T08:26:38.741Z,51.50
2018-11-12T08:29:06.150Z,51.50
2018-11-12T08:31:33.549Z,51.50
2018-11-12T08:34:01.022Z,51.40
2018-11-12T08:36:28.501Z,51.40
2018-11-12T08:38:55.841Z,51.40
2018-11-12T08:41:23.249Z,51.30
2018-11-12T08:43:50.649Z,51.30
2018-11-12T08:46:18.058Z,51.30
2018-11-12T08:48:45.464Z,51.30
2018-11-12T08:51:12.929Z,51.30
2018-11-12T08:53:40.344Z,51.30
2018-11-12T08:56:07.750Z,51.20
2018-11-12T08:58:35.177Z,51.40
2018-11-12T09:01:02.582Z,51.40
2018-11-12T09:03:30.049Z,51.40
2018-11-12T09:05:57.523Z,51.60
2018-11-12T09:08:24.907Z,51.70
2018-11-12T09:10:52.309Z,51.50
2018-11-12T09:13:19.711Z,51.40
2018-11-12T09:15:47.198Z,51.50
2018-11-12T09:18:14.537Z,51.50
2018-11-12T09:20:42.001Z,51.40
2018-11-12T09:23:09.519Z,51.50
2018-11-12T09:25:36.922Z,51.40
2018-11-12T09:28:04.325Z,51.40
2018-11-12T09:30:31.759Z,51.20
2018-11-12T09:32:59.128Z,51.20
2018-11-12T09:35:28.591Z,51.10
2018-11-12T09:37:56.885Z,51.10
2018-11-12T09:40:26.954Z,51.00
2018-11-12T09:42:54.550Z,51.00
2018-11-12T09:45:21.955Z,51.20
2018-11-12T09:47:49.477Z,50.90
2018-11-12T09:50:18.146Z,51.00
2018-11-12T09:52:46.832Z,51.00
2018-11-12T09:55:14.892Z,50.90
2018-11-12T09:57:43.407Z,50.90
2018-11-12T10:00:12.337Z,51.00
2018-11-12T10:02:40.867Z,51.00
2018-11-12T10:05:08.976Z,50.90
2018-11-12T10:07:37.348Z,50.90
2018-11-12T10:10:05.767Z,50.90
2018-11-12T10:12:32.942Z,51.00
2018-11-12T10:14:59.411Z,50.90
2018-11-12T10:17:27.191Z,51.00
2018-11-12T10:19:52.405Z,51.10
2018-11-12T10:22:19.833Z,51.10
2018-11-12T10:24:47.237Z,51.10
2018-11-12T10:27:14.742Z,51.40
2018-11-12T10:29:42.074Z,51.40
2018-11-12T10:32:09.486Z,51.40
2018-11-12T10:34:37.228Z,51.60
2018-11-12T10:37:04.826Z,51.60
2018-11-12T10:39:32.450Z,51.70
2018-11-12T10:41:59.858Z,51.70
2018-11-12T10:44:27.270Z,51.40
2018-11-12T10:46:57.582Z,51.40
2018-11-12T10:49:25.362Z,51.50
2018-11-12T10:51:52.770Z,51.40
2018-11-12T10:54:20.276Z,51.20
2018-11-12T10:56:47.626Z,51.10
2018-11-12T10:59:15.038Z,51.10
2018-11-12T11:01:48.047Z,51.10
2018-11-12T11:04:28.146Z,51.00
2018-11-12T11:06:55.642Z,51.00
2018-11-12T11:09:23.054Z,51.10
2018-11-12T11:11:50.466Z,51.20
2018-11-12T11:14:17.870Z,51.10
2018-11-12T11:16:45.271Z,51.10
2018-11-12T11:19:12.693Z,50.90
2018-11-12T11:21:40.098Z,50.90
2018-11-12T11:24:07.523Z,50.90
2018-11-12T11:26:34.952Z,50.80
2018-11-12T11:29:02.428Z,50.90
2018-11-12T11:31:29.829Z,50.80
2018-11-12T11:33:57.234Z,50.80
2018-11-12T11:36:24.647Z,50.70
2018-11-12T11:38:52.055Z,50.80
2018-11-12T11:41:19.466Z,50.80
2018-11-12T11:43:47.548Z,50.80
2018-11-12T11:46:15.077Z,50.80
2018-11-12T11:48:42.510Z,50.80
2018-11-12T11:51:09.922Z,50.80
2018-11-12T11:53:37.446Z,50.90
2018-11-12T11:56:04.887Z,50.80
2018-11-12T11:58:32.423Z,50.80
2018-11-12T12:00:59.846Z,50.80
2018-11-12T12:03:27.252Z,51.00
2018-11-12T12:05:54.722Z,51.10
2018-11-12T12:08:22.126Z,51.60
2018-11-12T12:10:49.525Z,50.90
2018-11-12T12:13:16.982Z,50.90
2018-11-12T12:15:44.365Z,51.00
2018-11-12T12:18:11.826Z,50.90
2018-11-12T12:20:39.191Z,50.90
2018-11-12T12:23:06.601Z,50.80
2018-11-12T12:25:34.128Z,50.80
2018-11-12T12:28:01.426Z,50.80
2018-11-12T12:30:29.006Z,50.80
2018-11-12T12:32:57.299Z,50.80
2018-11-12T12:35:24.747Z,50.80
2018-11-12T12:37:52.408Z,50.70
2018-11-12T12:40:20.987Z,50.70
2018-11-12T12:42:48.394Z,50.70
2018-11-12T12:45:17.184Z,50.70
2018-11-12T12:47:45.004Z,50.60
2018-11-12T12:50:13.657Z,50.50
2018-11-12T12:52:41.074Z,51.10
2018-11-12T12:55:09.630Z,50.50
2018-11-12T12:57:37.062Z,50.50
2018-11-12T13:00:05.424Z,50.50
2018-11-12T13:02:32.757Z,50.50
2018-11-12T13:05:00.225Z,50.50
2018-11-12T13:07:27.624Z,50.40
2018-11-12T13:09:55.050Z,50.40
2018-11-12T13:12:22.465Z,50.50
2018-11-12T13:14:50.330Z,50.50
2018-11-12T13:17:17.633Z,50.50
2018-11-12T13:19:45.083Z,50.50
2018-11-12T13:22:12.474Z,50.40
2018-11-12T13:24:39.940Z,50.60
2018-11-12T13:27:07.390Z,50.70
2018-11-12T13:29:34.806Z,50.70
2018-11-12T13:32:02.226Z,50.70
2018-11-12T13:34:31.850Z,50.70
2018-11-12T13:36:59.269Z,50.70
2018-11-12T13:39:26.814Z,50.70
2018-11-12T13:41:56.742Z,50.70
2018-11-12T13:44:24.179Z,50.50
2018-11-12T13:46:52.662Z,50.50
2018-11-12T13:49:20.103Z,50.60
2018-11-12T13:51:47.622Z,51.20
2018-11-12T13:54:15.166Z,50.50
2018-11-12T13:56:42.590Z,50.40
2018-11-12T13:59:10.105Z,50.50
2018-11-12T14:01:37.522Z,50.40
2018-11-12T14:04:05.074Z,50.30
2018-11-12T14:06:32.492Z,50.40
2018-11-12T14:08:59.914Z,50.30
2018-11-12T14:11:27.338Z,50.20
2018-11-12T14:13:55.403Z,50.20
2018-11-12T14:16:22.758Z,50.20
2018-11-12T14:18:50.182Z,50.10
2018-11-12T14:21:17.780Z,50.10
2018-11-12T14:23:45.039Z,50.10
2018-11-12T14:26:12.454Z,50.10
2018-11-12T14:28:40.118Z,50.10
2018-11-12T14:31:07.742Z,50.10
2018-11-12T14:33:35.155Z,50.10
2018-11-12T14:36:02.617Z,50.10
2018-11-12T14:38:29.981Z,50.20
2018-11-12T14:40:57.487Z,50.20
2018-11-12T14:43:24.913Z,50.20
2018-11-12T14:45:52.337Z,50.20
2018-11-12T14:48:19.839Z,50.40
2018-11-12T14:50:47.250Z,50.30
2018-11-12T14:53:14.689Z,50.40
2018-11-12T14:55:42.102Z,50.40
2018-11-12T14:58:09.527Z,50.40
2018-11-12T15:00:36.958Z,50.40
2018-11-12T15:03:04.383Z,50.40
2018-11-12T15:05:31.810Z,51.00
2018-11-12T15:07:59.301Z,50.70
2018-11-12T15:10:26.807Z,50.70
2018-11-12T15:12:54.214Z,50.70
2018-11-12T15:15:21.637Z,50.50
2018-11-12T15:17:49.061Z,50.50
2018-11-12T15:20:17.730Z,50.50
2018-11-12T15:22:45.459Z,50.70
2018-11-12T15:25:14.110Z,50.70
2018-11-12T15:27:41.855Z,50.70
2018-11-12T15:30:10.226Z,50.70
2018-11-12T15:32:37.987Z,50.70
2018-11-12T15:35:06.035Z,50.70
2018-11-12T15:37:33.497Z,50.80
2018-11-12T15:40:01.060Z,50.90
2018-11-12T15:42:28.478Z,50.90
2018-11-12T15:44:55.963Z,50.90
2018-11-12T15:47:23.380Z,51.00
2018-11-12T15:49:50.821Z,51.10
2018-11-12T15:52:18.253Z,51.00
2018-11-12T15:54:45.658Z,51.10
2018-11-12T15:57:13.143Z,51.20
2018-11-12T15:59:40.545Z,51.20
2018-11-12T16:02:07.950Z,51.30
2018-11-12T16:04:35.708Z,51.40
2018-11-12T16:07:03.159Z,51.40
2018-11-12T16:09:30.579Z,51.50
2018-11-12T16:11:58.507Z,51.60
2018-11-12T16:14:25.866Z,51.60
2018-11-12T16:16:53.305Z,51.80
2018-11-12T16:19:20.773Z,52.10
2018-11-12T16:21:48.242Z,52.20
2018-11-12T16:24:15.649Z,52.00
2018-11-12T16:26:43.148Z,52.20
2018-11-12T16:29:10.490Z,52.20
2018-11-12T16:31:37.982Z,52.10
2018-11-12T16:34:05.859Z,52.00
2018-11-12T16:36:34.053Z,52.20
2018-11-12T16:39:01.526Z,52.00
2018-11-12T16:41:28.957Z,51.90
2018-11-12T16:43:56.432Z,51.90
2018-11-12T16:46:23.867Z,52.20
2018-11-12T16:48:51.322Z,52.10
2018-11-12T16:51:18.746Z,52.00
2018-11-12T16:53:46.174Z,51.90
2018-11-12T16:56:13.686Z,52.00
2018-11-12T16:58:41.135Z,51.90
2018-11-12T17:01:08.609Z,51.80
2018-11-12T17:03:36.087Z,51.70
2018-11-12T17:06:03.497Z,51.60
2018-11-12T17:08:30.915Z,51.60
2018-11-12T17:10:58.329Z,51.60
2018-11-12T17:13:25.762Z,51.60
2018-11-12T17:15:53.177Z,51.60
2018-11-12T17:18:20.603Z,51.60
2018-11-12T17:20:48.049Z,51.60
2018-11-12T17:23:15.466Z,51.50
2018-11-12T17:25:42.865Z,51.50
2018-11-12T17:28:10.299Z,51.50
2018-11-12T17:30:37.743Z,51.50
2018-11-12T17:33:05.177Z,51.40
2018-11-12T17:35:32.609Z,51.50
2018-11-12T17:38:00.041Z,51.30
2018-11-12T17:40:27.458Z,51.30
2018-11-12T17:42:56.029Z,52.10
2018-11-12T17:45:24.702Z,51.40
2018-11-12T17:47:52.906Z,51.40
2018-11-12T17:50:20.365Z,51.30
2018-11-12T17:52:47.836Z,51.40
2018-11-12T17:55:15.260Z,51.40
2018-11-12T17:57:42.690Z,51.40
2018-11-12T18:00:14.254Z,51.60
2018-11-12T18:02:41.671Z,51.60
2018-11-12T18:05:09.885Z,51.60
2018-11-12T18:07:37.637Z,51.60
2018-11-12T18:10:05.458Z,51.60
2018-11-12T18:12:32.997Z,51.70
2018-11-12T18:15:00.440Z,51.70
2018-11-12T18:17:27.854Z,51.60
2018-11-12T18:19:55.278Z,51.60
2018-11-12T18:22:22.694Z,51.60
2018-11-12T18:24:50.121Z,51.60
2018-11-12T18:27:17.546Z,51.60
2018-11-12T18:29:44.983Z,51.80
2018-11-12T18:32:12.426Z,51.90
2018-11-12T18:34:39.866Z,51.90
2018-11-12T18:37:07.840Z,51.90
2018-11-12T18:39:35.286Z,51.60
2018-11-12T18:42:02.708Z,51.60
2018-11-12T18:44:30.134Z,51.60
2018-11-12T18:46:57.549Z,51.60
2018-11-12T18:49:25.211Z,51.60
2018-11-12T18:51:52.629Z,51.70
2018-11-12T18:54:20.158Z,51.60
2018-11-12T18:56:47.678Z,51.60
2018-11-12T18:59:15.226Z,51.60
2018-11-12T19:01:42.786Z,51.60
2018-11-12T19:04:10.248Z,51.60
2018-11-12T19:06:37.666Z,51.60
2018-11-12T19:09:06.238Z,51.60
2018-11-12T19:11:33.698Z,51.60
2018-11-12T19:14:01.109Z,51.60
2018-11-12T19:16:28.545Z,51.60
2018-11-12T19:18:55.965Z,51.60
2018-11-12T19:23:57.761Z,51.60
2018-11-12T19:26:25.214Z,51.60
2018-11-12T19:28:52.989Z,51.60
2018-11-12T19:31:20.831Z,51.60
2018-11-12T19:33:48.344Z,51.60
2018-11-12T19:36:15.920Z,51.60
2018-11-12T19:38:43.353Z,51.60
2018-11-12T19:41:10.854Z,51.90
2018-11-12T19:43:38.505Z,51.80
2018-11-12T19:46:06.645Z,51.90
2018-11-12T19:48:34.053Z,51.80
2018-11-12T19:51:01.534Z,51.60
2018-11-12T19:53:28.938Z,51.70
2018-11-12T19:55:56.355Z,51.60
2018-11-12T19:58:23.770Z,51.60
2018-11-12T20:00:51.195Z,51.60
2018-11-12T20:03:18.642Z,51.50
2018-11-12T20:05:46.063Z,51.50
2018-11-12T20:08:13.514Z,51.40
2018-11-12T20:10:40.909Z,51.40
2018-11-12T20:13:08.337Z,51.30
2018-11-12T20:15:35.803Z,51.30
2018-11-12T20:18:03.238Z,51.10
2018-11-12T20:20:31.736Z,51.30
2018-11-12T20:22:59.153Z,51.20
2018-11-12T20:25:26.570Z,51.10
2018-11-12T20:27:54.841Z,51.20
2018-11-12T20:30:25.023Z,51.10
2018-11-12T20:32:52.633Z,51.10
2018-11-12T20:35:20.072Z,50.60
2018-11-12T20:37:47.956Z,51.20
2018-11-12T20:40:16.015Z,51.20
2018-11-12T20:42:44.497Z,51.20
2018-11-12T20:45:12.713Z,51.30
2018-11-12T20:47:40.646Z,51.30
2018-11-12T20:50:08.710Z,51.30
2018-11-12T20:52:36.164Z,51.20
2018-11-12T20:55:03.557Z,51.30
2018-11-12T20:57:31.002Z,51.30
2018-11-12T20:59:58.444Z,51.30
2018-11-12T21:02:26.028Z,51.30
2018-11-12T21:04:53.550Z,51.30
2018-11-12T21:07:20.975Z,51.30
2018-11-12T21:09:48.389Z,51.30
2018-11-12T21:12:15.835Z,51.30
2018-11-12T21:14:43.250Z,51.40
2018-11-12T21:17:10.669Z,51.40
2018-11-12T21:19:38.288Z,51.30
2018-11-12T21:22:06.160Z,51.30
2018-11-12T21:24:33.581Z,51.30
2018-11-12T21:27:01.005Z,51.30
2018-11-12T21:29:28.447Z,51.30
2018-11-12T21:31:55.862Z,51.10
2018-11-12T21:34:23.300Z,51.10
2018-11-12T21:36:50.815Z,51.00
2018-11-12T21:39:18.201Z,50.90
2018-11-12T21:41:45.626Z,50.80
2018-11-12T21:44:13.054Z,50.80
2018-11-12T21:46:40.485Z,50.80
2018-11-12T21:49:07.924Z,50.80
2018-11-12T21:51:35.357Z,50.70
2018-11-12T21:54:02.934Z,50.70
2018-11-12T21:56:30.405Z,50.60
2018-11-12T21:58:57.850Z,50.60
2018-11-12T22:01:25.303Z,50.50
2018-11-12T22:03:52.771Z,50.50
2018-11-12T22:06:20.210Z,50.50
2018-11-12T22:08:47.650Z,50.40
2018-11-12T22:11:15.074Z,50.40
2018-11-12T22:13:42.514Z,50.40
2018-11-12T22:16:09.937Z,50.50
2018-11-12T22:18:37.378Z,50.40
2018-11-12T22:21:04.930Z,50.30
2018-11-12T22:23:32.380Z,51.00
2018-11-12T22:25:59.833Z,50.30
2018-11-12T22:28:27.264Z,50.20
2018-11-12T22:30:54.698Z,50.20
2018-11-12T22:33:22.109Z,50.20
2018-11-12T22:35:49.533Z,50.20
2018-11-12T22:38:16.945Z,50.20
2018-11-12T22:40:44.353Z,50.20
2018-11-12T22:43:11.770Z,50.20
2018-11-12T22:45:39.233Z,50.20
2018-11-12T22:48:06.618Z,50.20
2018-11-12T22:50:34.035Z,50.30
2018-11-12T22:53:01.465Z,50.30
2018-11-12T22:55:28.874Z,50.40
2018-11-12T22:57:56.282Z,50.40
2018-11-12T23:00:28.370Z,50.50
2018-11-12T23:02:56.350Z,50.70
2018-11-12T23:05:24.035Z,50.80
2018-11-12T23:07:52.087Z,50.80
2018-11-12T23:10:19.953Z,50.80
2018-11-12T23:12:47.417Z,50.70
2018-11-12T23:15:15.285Z,50.70
2018-11-12T23:17:42.697Z,50.70
2018-11-12T23:20:12.155Z,50.60
2018-11-12T23:22:40.109Z,50.50
2018-11-12T23:25:08.092Z,50.50
2018-11-12T23:27:35.541Z,50.50
2018-11-12T23:30:02.958Z,50.50
2018-11-12T23:32:30.406Z,50.40
2018-11-12T23:34:57.818Z,50.30
2018-11-12T23:37:25.262Z,50.30
2018-11-12T23:39:52.813Z,50.20
2018-11-12T23:42:20.230Z,50.20
2018-11-12T23:44:47.772Z,50.20
2018-11-12T23:47:15.203Z,50.10
2018-11-12T23:49:42.614Z,50.00
2018-11-12T23:52:10.083Z,50.10
2018-11-12T23:54:37.484Z,50.00
2018-11-12T23:57:04.907Z,50.00
2018-11-12T23:59:32.324Z,50.00
